Time;durP1;ratioP1;P1;durP2;ratioP2;P2;SDS_P1;SDS_P2;PMS_P1;PMS_P2;Temp;Humidity;BMP_temperature;BMP_pressure;BME280_temperature;BME280_humidity;BME280_pressure;Samples;Min_cycle;Max_cycle;Signal;HPM_P1;HPM_P2
2022/01/20 00:02:22;;;;;;;24.95;3.90;;;;;;;-144.19;100.00;78244.84;6185001;23;20029;-88
2022/01/20 00:05:06;;;;;;;15.70;3.78;;;;;;;-144.19;100.00;78236.97;6182946;23;20028;-88
2022/01/20 00:08:07;;;;;;;22.60;4.10;;;;;;;-144.19;100.00;78244.84;6184347;23;20021;-89
2022/01/20 00:27:05;;;;;;;23.55;4.03;;;;;;;-144.19;100.00;78189.72;6127426;23;20037;-88
2022/01/20 00:29:46;;;;;;;21.55;3.33;;;;;;;-144.19;100.00;78181.84;6157906;23;20100;-87
2022/01/20 00:32:13;;;;;;;17.95;3.22;;;;;;;-144.19;100.00;78189.72;6157901;23;20025;-88
2022/01/20 00:35:08;;;;;;;21.17;3.70;;;;;;;-144.19;100.00;78205.47;6158493;23;20357;-88
2022/01/20 00:37:35;;;;;;;17.55;3.58;;;;;;;-144.19;100.00;78197.59;6157967;23;20357;-89
2022/01/20 00:40:02;;;;;;;24.38;4.05;;;;;;;-144.19;100.00;78197.59;6158684;23;20025;-88
2022/01/20 00:42:29;;;;;;;19.15;4.32;;;;;;;-144.19;100.00;78201.53;6158019;23;20027;-88
2022/01/20 00:44:56;;;;;;;24.17;3.63;;;;;;;-144.19;100.00;78213.34;6184534;23;20021;-87
2022/01/20 00:47:22;;;;;;;27.00;4.25;;;;;;;-144.19;100.00;78209.41;6184000;23;20349;-88
2022/01/20 00:49:49;;;;;;;26.30;3.47;;;;;;;-144.19;100.00;78199.56;6158194;23;20096;-89
2022/01/20 00:52:16;;;;;;;;;;;;;;;-144.19;100.00;78177.91;6158615;23;20032;-89
2022/01/20 00:54:42;;;;;;;20.60;3.95;;;;;;;-144.19;100.00;78177.91;6158301;23;19916;-87
2022/01/20 00:57:09;;;;;;;22.33;3.72;;;;;;;-144.19;100.00;78173.94;6160669;23;20029;-88
2022/01/20 00:59:35;;;;;;;15.35;3.15;;;;;;;-144.19;100.00;78166.06;6160548;23;20334;-88
2022/01/20 01:02:06;;;;;;;19.35;2.95;;;;;;;-144.19;100.00;78193.66;6186919;23;20023;-88
2022/01/20 01:04:33;;;;;;;19.83;5.88;;;;;;;-144.19;100.00;78181.84;6187321;23;20021;-87
2022/01/20 01:09:27;;;;;;;16.63;3.47;;;;;;;-144.19;100.00;78173.94;6185998;23;20025;-88
2022/01/20 01:11:58;;;;;;;19.35;3.70;;;;;;;-144.19;100.00;78170.00;6186052;23;20021;-88
2022/01/20 01:14:25;;;;;;;18.58;3.15;;;;;;;-144.19;100.00;78168.03;6186471;23;20113;-87
2022/01/20 01:24:41;;;;;;;22.45;4.45;;;;;;;-144.19;100.00;78128.66;6186272;23;20027;-87
2022/01/20 01:27:09;;;;;;;17.92;3.90;;;;;;;-144.19;100.00;78134.56;6161245;23;20143;-86
2022/01/20 01:32:18;;;;;;;13.45;2.42;;;;;;;-144.19;100.00;78122.75;6186000;23;20025;-89
2022/01/20 01:34:49;;;;;;;17.20;2.70;;;;;;;-144.19;100.00;78134.56;6159810;23;20031;-88
2022/01/20 01:39:59;;;;;;;14.63;3.03;;;;;;;-144.19;100.00;78150.31;6187161;23;20338;-86
2022/01/20 01:42:43;;;;;;;17.33;2.63;;;;;;;-144.19;100.00;78152.28;6161859;23;20029;-89
2022/01/20 01:45:16;;;;;;;17.13;3.50;;;;;;;-144.19;100.00;78142.44;6159651;23;20099;-88
2022/01/20 01:47:45;;;;;;;15.13;3.45;;;;;;;-144.19;100.00;78136.53;6159050;23;20108;-88
2022/01/20 01:50:14;;;;;;;14.52;2.90;;;;;;;-144.19;100.00;78136.53;6186172;23;20025;-89
2022/01/20 01:52:40;;;;;;;15.75;2.67;;;;;;;-144.19;100.00;78130.63;6185344;23;20027;-88
2022/01/20 01:55:07;;;;;;;15.63;3.28;;;;;;;-144.19;100.00;78134.56;6159734;23;20029;-89
2022/01/20 01:57:33;;;;;;;15.60;2.70;;;;;;;-144.19;100.00;78152.28;6160179;23;20025;-87
2022/01/20 02:00:00;;;;;;;15.37;3.33;;;;;;;-144.19;100.00;78138.50;6159094;23;20027;-88
2022/01/20 02:02:27;;;;;;;17.57;3.03;;;;;;;-144.19;100.00;78122.75;6159239;23;20256;-87
2022/01/20 02:04:54;;;;;;;;;;;;;;;-144.19;100.00;78138.50;6160064;23;20028;-88
2022/01/20 02:07:58;;;;;;;10.88;2.33;;;;;;;-144.19;100.00;78138.50;6159643;23;19990;-88
2022/01/20 02:18:42;;;;;;;9.57;3.45;;;;;;;-144.19;100.00;78095.19;6184946;23;20025;-88
2022/01/20 02:21:09;;;;;;;17.38;2.97;;;;;;;-144.19;100.00;78099.13;6159217;23;20021;-88
2022/01/20 02:23:35;;;;;;;10.70;2.50;;;;;;;-144.19;100.00;78091.25;6158956;23;20036;-87
2022/01/20 02:26:02;;;;;;;16.87;2.53;;;;;;;-144.19;100.00;78079.44;6158697;23;20245;-89
2022/01/20 02:28:28;;;;;;;14.63;2.97;;;;;;;-144.19;100.00;78087.31;6158888;23;20021;-88
2022/01/20 02:30:55;;;;;;;20.13;2.37;;;;;;;-144.19;100.00;78081.41;6158821;23;20484;-88
2022/01/20 02:33:24;;;;;;;11.68;2.78;;;;;;;-144.19;100.00;78079.44;6159017;23;20244;-87
2022/01/20 02:35:57;;;;;;;13.15;2.20;;;;;;;-144.19;100.00;78077.47;6158706;23;20032;-87
2022/01/20 02:38:39;;;;;;;12.18;2.08;;;;;;;-144.19;100.00;78093.22;6158402;23;20025;-88
2022/01/20 02:46:38;;;;;;;10.00;2.17;;;;;;;-144.19;100.00;78063.69;6184839;23;20027;-85
2022/01/20 02:49:07;;;;;;;10.18;2.47;;;;;;;-144.19;100.00;78067.63;6158651;23;20033;-85
2022/01/20 02:51:35;;;;;;;15.27;2.45;;;;;;;-144.19;100.00;78047.94;6185938;23;20017;-86
2022/01/20 02:54:03;;;;;;;16.63;2.78;;;;;;;-144.19;100.00;78049.91;6184897;23;20480;-89
2022/01/20 02:56:29;;;;;;;12.07;2.25;;;;;;;-144.19;100.00;78079.44;6186559;23;20357;-88
2022/01/20 02:58:56;;;;;;;12.57;2.90;;;;;;;-144.19;100.00;78083.38;6185981;23;20031;-88
2022/01/20 03:01:22;;;;;;;11.05;2.10;;;;;;;-144.19;100.00;78103.06;6159383;23;20027;-89
2022/01/20 03:03:49;;;;;;;11.63;3.03;;;;;;;-144.19;100.00;78099.13;6184854;23;20025;-87
2022/01/20 03:06:16;;;;;;;10.30;1.67;;;;;;;-144.19;100.00;78118.81;6158959;23;20028;-88
2022/01/20 03:08:42;;;;;;;14.90;3.50;;;;;;;-144.19;100.00;78120.78;6159086;23;20024;-88
2022/01/20 03:11:09;;;;;;;11.83;2.47;;;;;;;-144.19;100.00;78144.41;6185322;23;20241;-89
2022/01/20 03:13:35;;;;;;;4.90;1.20;;;;;;;-144.19;100.00;78138.50;6165889;23;20035;-88
2022/01/20 03:16:02;;;;;;;;;;;;;;;-144.19;100.00;78138.50;6181972;23;20457;-88
2022/01/20 03:18:30;;;;;;;4.88;0.93;;;;;;;-144.19;100.00;78158.19;6191315;23;19932;-86
2022/01/20 03:20:58;;;;;;;4.35;1.40;;;;;;;-144.19;100.00;78134.56;6206430;23;20044;-87
2022/01/20 03:23:26;;;;;;;7.45;1.40;;;;;;;-144.19;100.00;78126.69;6205961;23;20020;-87
2022/01/20 03:25:54;;;;;;;6.65;1.42;;;;;;;-144.19;100.00;78130.63;6205663;23;20068;-87
2022/01/20 03:28:22;;;;;;;7.57;1.30;;;;;;;-144.19;100.00;78126.69;6205636;23;20028;-88
2022/01/20 03:30:50;;;;;;;6.15;1.88;;;;;;;-144.19;100.00;78134.56;6205175;23;20017;-88
2022/01/20 03:33:18;;;;;;;7.53;1.77;;;;;;;-144.19;100.00;78134.56;6205610;23;20035;-88
2022/01/20 03:35:45;;;;;;;10.63;2.08;;;;;;;-144.19;100.00;78152.28;6208039;23;20009;-88
2022/01/20 03:38:18;;;;;;;7.47;2.08;;;;;;;-144.19;100.00;78138.50;6205285;23;20020;-87
2022/01/20 03:40:46;;;;;;;6.28;2.03;;;;;;;-144.19;100.00;78122.75;6204665;23;20044;-87
2022/01/20 03:43:14;;;;;;;8.85;1.65;;;;;;;-144.19;100.00;78138.50;6204496;23;20480;-87
2022/01/20 03:45:42;;;;;;;7.45;1.52;;;;;;;-144.19;100.00;78130.63;6205462;23;20100;-87
2022/01/20 03:48:12;;;;;;;8.75;1.95;;;;;;;-144.19;100.00;78130.63;6201154;23;20033;-87
2022/01/20 03:53:28;;;;;;;5.93;1.40;;;;;;;-144.19;100.00;78173.94;6206399;23;20021;-87
2022/01/20 03:55:56;;;;;;;7.60;1.25;;;;;;;-144.19;100.00;78173.94;6204547;23;20040;-88
2022/01/20 03:58:29;;;;;;;7.80;1.27;;;;;;;-144.19;100.00;78199.56;6205402;23;20056;-86
2022/01/20 04:01:01;;;;;;;3.22;1.23;;;;;;;-144.19;100.00;78229.09;6205854;23;20021;-87
2022/01/20 04:03:31;;;;;;;7.38;1.25;;;;;;;-144.19;100.00;78227.13;6206238;23;20024;-86
2022/01/20 04:06:00;;;;;;;7.78;1.20;;;;;;;-144.19;100.00;78256.66;6206179;23;20048;-88
2022/01/20 04:08:34;;;;;;;4.90;1.10;;;;;;;-144.19;100.00;78272.41;6204733;23;20097;-88
2022/01/20 04:11:27;;;;;;;6.30;1.02;;;;;;;-144.19;100.00;78288.16;6204471;23;20032;-88
2022/01/20 04:13:55;;;;;;;5.18;1.02;;;;;;;-144.19;100.00;78299.97;6205331;23;20029;-88
2022/01/20 04:16:38;;;;;;;5.22;1.08;;;;;;;-144.19;100.00;78299.97;6205176;23;20055;-87
2022/01/20 04:19:13;;;;;;;10.70;1.65;;;;;;;-144.19;100.00;78311.81;6204923;23;20013;-86
2022/01/20 04:21:42;;;;;;;5.82;1.52;;;;;;;-144.19;100.00;78325.59;6206814;23;20017;-88
2022/01/20 04:24:10;;;;;;;8.45;2.00;;;;;;;-144.19;100.00;78321.66;6205557;23;20076;-86
2022/01/20 04:26:39;;;;;;;9.93;0.88;;;;;;;-144.19;100.00;78343.31;6205361;23;20043;-87
2022/01/20 04:29:08;;;;;;;4.38;1.08;;;;;;;-144.19;100.00;78307.88;6206368;23;20060;-87
2022/01/20 04:31:39;;;;;;;7.90;1.40;;;;;;;-144.19;100.00;78321.66;6205274;23;20017;-87
2022/01/20 04:34:08;;;;;;;7.40;1.77;;;;;;;-144.19;100.00;78339.38;6205417;23;20043;-86
2022/01/20 04:36:40;;;;;;;9.13;1.13;;;;;;;-144.19;100.00;78343.31;6206139;23;20021;-88
2022/01/20 04:39:16;;;;;;;7.13;1.13;;;;;;;-144.19;100.00;78361.03;6205309;23;20029;-87
2022/01/20 04:41:47;;;;;;;8.38;1.85;;;;;;;-144.19;100.00;78347.25;6205849;23;20056;-87
2022/01/20 04:44:30;;;;;;;8.20;1.50;;;;;;;-144.19;100.00;78363.00;6204843;23;20048;-87
2022/01/20 04:47:21;;;;;;;8.40;1.65;;;;;;;-144.19;100.00;78347.25;6207025;23;20043;-87
2022/01/20 04:58:21;;;;;;;11.20;2.42;;;;;;;-144.19;100.00;78355.13;6207613;23;20024;-88
2022/01/20 05:00:57;;;;;;;13.93;2.38;;;;;;;-144.19;100.00;78366.94;6205740;23;20032;-87
2022/01/20 05:03:27;;;;;;;21.00;2.65;;;;;;;-144.19;100.00;78380.72;6205628;23;20025;-87
2022/01/20 05:05:55;;;;;;;;;;;;;;;-144.19;100.00;78402.38;6205413;23;20021;-87
2022/01/20 05:08:24;;;;;;;15.57;2.13;;;;;;;-144.19;100.00;78408.28;6206473;23;19932;-88
2022/01/20 05:10:53;;;;;;;14.40;2.83;;;;;;;-144.19;100.00;78382.69;6206264;23;20020;-87
2022/01/20 05:13:32;;;;;;;18.77;2.38;;;;;;;-144.19;100.00;78380.72;6230300;23;20025;-87
2022/01/20 05:16:00;;;;;;;9.05;2.22;;;;;;;-144.19;100.00;78410.25;6205428;23;20029;-88
2022/01/20 05:18:28;;;;;;;15.77;2.92;;;;;;;-144.19;100.00;78392.53;6205371;23;20025;-88
2022/01/20 05:20:56;;;;;;;11.00;2.70;;;;;;;-144.19;100.00;78388.59;6204130;23;20043;-86
2022/01/20 05:23:23;;;;;;;12.13;2.25;;;;;;;-144.19;100.00;78386.63;6204338;23;20020;-89
2022/01/20 05:25:51;;;;;;;14.95;2.45;;;;;;;-144.19;100.00;78406.31;6204790;23;20028;-87
2022/01/20 05:28:19;;;;;;;15.07;2.20;;;;;;;-144.19;100.00;78400.41;6205410;23;20044;-89
2022/01/20 05:30:52;;;;;;;17.70;2.78;;;;;;;-144.19;100.00;78414.19;6204737;23;20052;-88
2022/01/20 05:33:19;;;;;;;13.88;3.15;;;;;;;-144.19;100.00;78424.06;6205855;23;20017;-89
2022/01/20 05:35:47;;;;;;;14.60;2.78;;;;;;;-144.19;100.00;78422.09;6205143;23;20025;-86
2022/01/20 05:38:15;;;;;;;9.63;2.72;;;;;;;-144.19;100.00;78441.78;6207102;23;20025;-88
2022/01/20 05:40:46;;;;;;;11.60;2.67;;;;;;;-144.19;100.00;78433.91;6205412;23;20032;-87
2022/01/20 05:43:14;;;;;;;22.30;3.00;;;;;;;-144.19;100.00;78433.91;6207566;23;20017;-88
2022/01/20 05:45:41;;;;;;;15.32;2.30;;;;;;;-144.19;100.00;78418.13;6208106;23;20028;-88
2022/01/20 05:48:15;;;;;;;16.42;2.35;;;;;;;-144.19;100.00;78437.84;6208326;23;20037;-88
2022/01/20 05:50:50;;;;;;;15.63;2.80;;;;;;;-144.19;100.00;78445.72;6199947;23;20048;-87
2022/01/20 05:53:20;;;;;;;13.82;2.20;;;;;;;-144.19;100.00;78443.75;6202953;23;20068;-88
2022/01/20 05:55:48;;;;;;;13.27;2.25;;;;;;;-144.19;100.00;78457.53;6207250;23;20086;-86
2022/01/20 05:58:15;;;;;;;14.85;2.95;;;;;;;-144.19;100.00;78465.41;6207481;23;20025;-87
2022/01/20 06:00:42;;;;;;;13.63;2.55;;;;;;;-144.19;100.00;78481.16;6207902;23;20028;-87
2022/01/20 06:03:37;;;;;;;;;;;;;;;-144.19;100.00;78485.09;6207851;23;20009;-88
2022/01/20 06:06:13;;;;;;;15.77;3.42;;;;;;;-144.19;100.00;78485.09;6208661;23;19904;-89
2022/01/20 06:08:51;;;;;;;13.23;2.83;;;;;;;-144.19;100.00;78485.09;6208066;23;20037;-87
2022/01/20 06:11:18;;;;;;;15.93;2.88;;;;;;;-144.19;100.00;78502.81;6207516;23;20056;-86
2022/01/20 06:13:46;;;;;;;16.27;2.60;;;;;;;-144.19;100.00;78489.03;6206964;23;20067;-86
2022/01/20 06:16:14;;;;;;;23.50;4.13;;;;;;;-144.19;100.00;78504.78;6206824;23;20021;-87
2022/01/20 06:18:49;;;;;;;13.30;3.53;;;;;;;-144.19;100.00;78492.97;6206505;23;20017;-88
2022/01/20 06:21:35;;;;;;;13.77;2.13;;;;;;;-144.19;100.00;78516.59;6206656;23;20040;-88
2022/01/20 06:24:03;;;;;;;14.02;3.25;;;;;;;-144.19;100.00;78516.59;6208469;23;20202;-87
2022/01/20 06:26:30;;;;;;;18.40;2.78;;;;;;;-144.19;100.00;78518.56;6207386;23;20048;-87
2022/01/20 06:29:03;;;;;;;12.68;1.90;;;;;;;-144.19;100.00;78516.59;6206680;23;20033;-85
2022/01/20 06:31:44;;;;;;;7.72;2.15;;;;;;;-144.19;100.00;78544.19;6206627;23;20013;-90
2022/01/20 06:34:30;;;;;;;14.23;2.40;;;;;;;-144.19;100.00;78563.88;6207286;23;20020;-87
2022/01/20 06:37:20;;;;;;;17.85;3.50;;;;;;;-144.19;100.00;78565.84;6207196;23;20063;-87
2022/01/20 06:39:56;;;;;;;12.45;2.35;;;;;;;-144.19;100.00;78595.38;6208472;23;20024;-88
2022/01/20 06:42:37;;;;;;;13.05;2.17;;;;;;;-144.19;100.00;78585.53;6207529;23;20048;-87
2022/01/20 06:45:26;;;;;;;10.30;1.90;;;;;;;-144.19;100.00;78585.53;6206477;23;20100;-87
2022/01/20 06:48:12;;;;;;;14.52;2.05;;;;;;;-144.19;100.00;78579.63;6207241;23;20202;-90
2022/01/20 06:51:01;;;;;;;17.77;2.25;;;;;;;-144.19;100.00;78589.47;6199190;23;20029;-89
2022/01/20 06:53:36;;;;;;;8.50;1.67;;;;;;;-144.19;100.00;78603.25;6206439;23;20021;-87
2022/01/20 06:56:14;;;;;;;;;;;;;;;;;;;;;
2022/01/20 06:59:10;;;;;;;13.13;2.57;;;;;;;-144.19;100.00;78613.09;6207566;23;20249;-88
2022/01/20 07:02:06;;;;;;;14.00;3.83;;;;;;;-144.19;100.00;78619.03;6206053;23;20272;-90
2022/01/20 07:04:34;;;;;;;8.75;2.22;;;;;;;-144.19;100.00;78621.00;6164905;23;20049;-90
2022/01/20 07:07:14;;;;;;;12.43;1.75;;;;;;;-144.19;100.00;78607.19;6207066;23;20080;-92
2022/01/20 07:10:21;;;;;;;17.13;2.38;;;;;;;-144.19;100.00;78607.19;6206714;23;20032;-88
2022/01/20 07:17:48;;;;;;;20.52;2.38;;;;;;;-144.19;100.00;78613.09;6186547;23;20032;-90
2022/01/20 07:20:16;;;;;;;10.77;2.63;;;;;;;-144.19;100.00;78626.91;6195094;23;20060;-88
2022/01/20 07:22:52;;;;;;;12.50;2.13;;;;;;;-144.19;100.00;78648.56;6207093;23;20025;-88
2022/01/20 07:25:20;;;;;;;14.40;3.10;;;;;;;-144.19;100.00;78668.25;6206071;23;20012;-85
2022/01/20 07:27:47;;;;;;;9.52;2.22;;;;;;;-144.19;100.00;78687.94;6205741;23;20079;-86
2022/01/20 07:30:39;;;;;;;13.05;1.85;;;;;;;-144.19;100.00;78713.56;6206978;23;20008;-87
2022/01/20 07:33:07;;;;;;;8.93;1.45;;;;;;;-144.19;100.00;78699.75;6205789;23;20039;-87
2022/01/20 07:35:38;;;;;;;13.23;2.25;;;;;;;-144.19;100.00;78745.06;6206694;23;20025;-87
2022/01/20 07:40:54;;;;;;;8.57;2.40;;;;;;;-144.19;100.00;78741.13;6060379;23;20023;-86
2022/01/20 07:43:21;;;;;;;8.30;2.13;;;;;;;-144.19;100.00;78731.28;6060852;23;20024;-88
2022/01/20 07:45:49;;;;;;;7.13;1.80;;;;;;;-144.19;100.00;78745.06;6059464;23;20030;-87
2022/01/20 07:48:20;;;;;;;9.32;1.98;;;;;;;-144.19;100.00;78743.09;6059433;23;20030;-88
2022/01/20 07:53:15;;;;;;;11.32;2.35;;;;;;;-144.19;100.00;78725.38;6151102;23;20021;-88
2022/01/20 07:55:42;;;;;;;9.82;2.00;;;;;;;-144.19;100.00;78725.38;6127790;23;20028;-89
2022/01/20 07:58:08;;;;;;;9.85;1.90;;;;;;;-144.19;100.00;78737.19;6127908;23;20421;-89
2022/01/20 08:00:35;;;;;;;11.50;2.33;;;;;;;-144.19;100.00;78723.41;6127989;23;20021;-89
2022/01/20 08:03:01;;;;;;;10.60;1.92;;;;;;;-144.19;100.00;78745.06;6127424;23;20018;-88
2022/01/20 08:05:28;;;;;;;12.45;2.42;;;;;;;-144.19;100.00;78749.00;6127540;23;20025;-88
2022/01/20 08:07:54;;;;;;;13.18;1.90;;;;;;;-144.19;100.00;78749.00;6153466;23;20022;-87
2022/01/20 08:10:21;;;;;;;11.60;2.70;;;;;;;-144.19;100.00;78739.16;6127775;23;20028;-89
2022/01/20 08:12:47;;;;;;;12.82;2.28;;;;;;;-144.19;100.00;78733.25;6152520;23;20476;-89
2022/01/20 08:15:15;;;;;;;17.50;3.22;;;;;;;-144.19;100.00;78733.25;6127690;23;20021;-90
2022/01/20 08:17:42;;;;;;;12.70;3.60;;;;;;;-144.19;100.00;78721.44;6127651;23;20021;-89
2022/01/20 08:20:10;;;;;;;14.30;3.03;;;;;;;-144.19;100.00;78731.28;6127383;23;20164;-88
2022/01/20 08:22:36;;;;;;;;;;;;;;;-144.19;100.00;78733.25;6126778;23;20013;-89
2022/01/20 08:25:09;;;;;;;11.75;2.10;;;;;;;-144.19;100.00;78739.16;6127681;23;20234;-90
2022/01/20 08:27:37;;;;;;;14.15;2.00;;;;;;;-144.19;100.00;78733.25;6127392;23;20100;-89
2022/01/20 08:30:06;;;;;;;14.07;3.22;;;;;;;-144.19;100.00;78721.44;6127311;23;20032;-89
2022/01/20 08:32:33;;;;;;;13.27;3.22;;;;;;;-144.19;100.00;78739.16;6127258;23;20024;-90
2022/01/20 08:35:04;;;;;;;9.35;2.47;;;;;;;-144.19;100.00;78735.22;6127302;23;20021;-90
2022/01/20 08:37:30;;;;;;;19.00;2.75;;;;;;;-144.19;100.00;78705.66;6127601;23;20028;-89
2022/01/20 08:39:57;;;;;;;17.60;2.78;;;;;;;-144.19;100.00;78713.56;6127556;23;20022;-90
2022/01/20 08:42:23;;;;;;;18.70;3.35;;;;;;;-144.19;100.00;78721.44;6127316;23;20021;-90
2022/01/20 08:44:50;;;;;;;17.55;2.58;;;;;;;-144.19;100.00;78717.50;6127078;23;20048;-89
2022/01/20 08:47:18;;;;;;;16.08;3.30;;;;;;;-144.19;100.00;78713.56;6126610;23;20017;-89
2022/01/20 08:49:46;;;;;;;18.17;2.28;;;;;;;-144.19;100.00;78743.09;6126331;23;20032;-89
2022/01/20 08:52:13;;;;;;;18.10;3.42;;;;;;;-144.19;100.00;78749.00;6136347;23;20026;-88
2022/01/20 08:54:39;;;;;;;;;;;;;;;-144.19;100.00;78760.81;6097620;23;20022;-90
2022/01/20 08:57:06;;;;;;;13.35;2.15;;;;;;;-144.19;100.00;78756.88;6098314;23;19996;-90
2022/01/20 08:59:32;;;;;;;12.38;2.13;;;;;;;-144.19;100.00;78760.81;6123523;23;20022;-87
2022/01/20 09:01:59;;;;;;;10.10;2.25;;;;;;;-144.19;100.00;78778.53;6097552;23;20061;-89
2022/01/20 09:04:26;;;;;;;11.82;2.58;;;;;;;-144.19;100.00;78778.53;6097904;23;20068;-89
2022/01/20 09:06:52;;;;;;;8.25;2.33;;;;;;;-144.19;100.00;78772.63;6098022;23;20028;-88
2022/01/20 09:09:20;;;;;;;13.52;2.13;;;;;;;-144.19;100.00;78766.72;6123504;23;20026;-89
2022/01/20 09:12:03;;;;;;;21.42;2.78;;;;;;;-144.19;100.00;78788.38;6123558;23;20077;-89
2022/01/20 09:17:15;;;;;;;13.38;3.10;;;;;;;-144.19;100.00;78796.28;6124574;23;20104;-89
2022/01/20 09:19:41;;;;;;;9.10;1.65;;;;;;;-144.19;100.00;78792.34;6100422;23;20028;-88
2022/01/20 09:22:08;;;;;;;9.68;2.38;;;;;;;-144.19;100.00;78778.53;6099257;23;20021;-89
2022/01/20 09:24:35;;;;;;;11.45;2.83;;;;;;;-144.19;100.00;78766.72;6099880;23;20022;-88
2022/01/20 09:27:02;;;;;;;5.60;1.77;;;;;;;-144.19;100.00;78766.72;6099796;23;20022;-90
2022/01/20 09:29:28;;;;;;;8.80;1.70;;;;;;;-144.19;100.00;78772.63;6125482;23;20028;-89
2022/01/20 09:31:55;;;;;;;13.02;2.10;;;;;;;-144.19;100.00;78737.19;6099545;23;20060;-89
2022/01/20 09:34:21;;;;;;;9.15;2.92;;;;;;;-144.19;100.00;78747.03;6099987;23;20022;-89
2022/01/20 09:36:49;;;;;;;16.80;2.10;;;;;;;-144.19;100.00;78733.25;6125509;23;20022;-89
2022/01/20 09:39:16;;;;;;;13.00;2.38;;;;;;;-144.19;100.00;78729.31;6125317;23;20439;-89
2022/01/20 09:41:44;;;;;;;10.75;2.00;;;;;;;-144.19;100.00;78721.44;6124937;23;20332;-89
2022/01/20 09:44:10;;;;;;;15.25;2.95;;;;;;;-144.19;100.00;78703.72;6098857;23;20022;-88
2022/01/20 09:46:37;;;;;;;11.80;2.35;;;;;;;-144.19;100.00;78705.66;6099561;23;20057;-90
2022/01/20 09:49:04;;;;;;;13.73;1.83;;;;;;;-144.19;100.00;78711.59;6099661;23;20342;-88
2022/01/20 09:51:30;;;;;;;13.10;2.20;;;;;;;-144.19;100.00;78685.97;6107201;23;20029;-88
2022/01/20 09:53:57;;;;;;;12.52;2.38;;;;;;;-144.19;100.00;78682.03;6152846;23;20052;-88
2022/01/20 09:56:23;;;;;;;13.38;3.45;;;;;;;-144.19;100.00;78674.16;6129224;23;20037;-89
2022/01/20 09:58:50;;;;;;;13.85;2.80;;;;;;;-144.19;100.00;78678.09;6156545;23;20045;-91
2022/01/20 10:01:36;;;;;;;14.88;2.92;;;;;;;-144.19;100.00;78701.72;6127865;23;20045;-89
2022/01/20 10:04:03;;;;;;;14.52;2.53;;;;;;;-144.19;100.00;78670.22;6153506;23;20017;-87
2022/01/20 10:06:29;;;;;;;17.25;2.63;;;;;;;-144.19;100.00;78662.34;6128719;23;20022;-88
2022/01/20 10:09:01;;;;;;;9.85;2.25;;;;;;;-144.19;100.00;78658.41;6129091;23;20100;-89
2022/01/20 10:11:44;;;;;;;11.35;2.13;;;;;;;-144.19;100.00;78687.94;6132286;23;20417;-90
2022/01/20 10:14:11;;;;;;;9.68;2.30;;;;;;;-144.19;100.00;78662.34;6153695;23;20021;-89
2022/01/20 10:16:37;;;;;;;10.90;2.72;;;;;;;-144.19;100.00;78678.09;6129016;23;20361;-88
2022/01/20 10:19:05;;;;;;;13.10;2.40;;;;;;;-144.19;100.00;78674.16;6153774;23;20041;-87
2022/01/20 10:21:35;;;;;;;14.38;3.22;;;;;;;-144.19;100.00;78666.28;6128308;23;20249;-89
2022/01/20 10:24:07;;;;;;;9.52;2.17;;;;;;;-144.19;100.00;78682.03;6153379;23;20022;-89
2022/01/20 10:26:34;;;;;;;16.40;2.42;;;;;;;-144.19;100.00;78674.16;6128676;23;20021;-89
2022/01/20 10:29:05;;;;;;;11.18;2.08;;;;;;;-144.19;100.00;78658.41;6128124;23;20032;-90
2022/01/20 10:31:51;;;;;;;19.38;2.60;;;;;;;-144.19;100.00;78634.78;6127587;23;20470;-88
2022/01/20 10:34:30;;;;;;;8.23;1.98;;;;;;;-144.19;100.00;78654.47;6127072;23;20036;-89
2022/01/20 10:37:01;;;;;;;12.45;2.20;;;;;;;-144.19;100.00;78658.41;6128113;23;20064;-89
2022/01/20 10:39:37;;;;;;;14.75;2.05;;;;;;;-144.19;100.00;78646.59;6128455;23;20021;-90
2022/01/20 10:42:09;;;;;;;11.82;2.55;;;;;;;-144.19;100.00;78605.22;6153397;23;20041;-89
2022/01/20 10:45:03;;;;;;;15.93;2.80;;;;;;;-144.19;100.00;78512.66;6154351;23;20021;-90
2022/01/20 10:47:32;;;;;;;14.55;2.78;;;;;;;-144.19;100.00;78563.88;6125514;23;20033;-92
2022/01/20 10:50:21;;;;;;;13.40;2.28;;;;;;;-144.19;100.00;78536.31;6130354;23;20028;-89
2022/01/20 10:52:49;;;;;;;11.77;2.13;;;;;;;-144.19;100.00;78492.97;6131920;23;20024;-88
2022/01/20 10:55:27;;;;;;;13.38;3.20;;;;;;;-144.19;100.00;78441.78;6101218;23;20022;-90
2022/01/20 10:58:09;;;;;;;7.35;2.40;;;;;;;-144.19;100.00;78491.00;6099498;23;20028;-89
2022/01/20 11:00:44;;;;;;;12.43;2.28;;;;;;;-144.19;100.00;78536.31;6126805;23;20033;-89
2022/01/20 11:03:10;;;;;;;13.48;2.22;;;;;;;-144.19;100.00;78544.19;6098542;23;20120;-88
2022/01/20 11:05:38;;;;;;;12.43;2.10;;;;;;;-144.19;100.00;78575.69;6098542;23;20032;-88
2022/01/20 11:08:07;;;;;;;9.95;2.08;;;;;;;-144.19;100.00;78544.19;6097886;23;20098;-88
2022/01/20 11:10:33;;;;;;;9.02;1.58;;;;;;;-144.19;100.00;78492.97;6098128;23;20028;-88
2022/01/20 11:13:00;;;;;;;12.32;3.47;;;;;;;-144.19;100.00;78449.66;6124447;23;20354;-86
2022/01/20 11:15:29;;;;;;;11.00;2.30;;;;;;;-144.19;100.00;78496.91;6099708;23;20022;-87
2022/01/20 11:17:57;;;;;;;12.05;2.40;;;;;;;-144.19;100.00;78492.97;6097946;23;20248;-87
2022/01/20 11:20:27;;;;;;;10.27;2.08;;;;;;;-144.19;100.00;78504.78;6124057;23;20022;-87
2022/01/20 11:22:59;;;;;;;9.57;2.30;;;;;;;-144.19;100.00;78496.91;6098256;23;20022;-88
2022/01/20 11:25:28;;;;;;;10.25;2.85;;;;;;;-144.19;100.00;78506.75;6098183;23;20032;-88
2022/01/20 11:28:24;;;;;;;20.23;3.40;;;;;;;-144.19;100.00;78524.50;6124866;23;20022;-87
2022/01/20 11:31:04;;;;;;;14.07;2.75;;;;;;;-144.19;100.00;78520.56;6060423;23;20030;-88
2022/01/20 11:33:36;;;;;;;9.48;1.92;;;;;;;-144.19;100.00;78536.31;6125258;23;20301;-87
2022/01/20 11:36:04;;;;;;;8.80;2.40;;;;;;;-144.19;100.00;78530.41;6098183;23;20022;-89
2022/01/20 11:38:50;;;;;;;10.30;1.98;;;;;;;-144.19;100.00;78512.66;6098008;23;20366;-90
2022/01/20 11:41:17;;;;;;;9.90;2.08;;;;;;;-144.19;100.00;78502.81;6097311;23;20021;-88
2022/01/20 11:43:52;;;;;;;9.35;1.90;;;;;;;-144.19;100.00;78496.91;6097204;23;20029;-87
2022/01/20 11:46:22;;;;;;;10.90;1.92;;;;;;;-144.19;100.00;78510.69;6098180;23;20036;-87
2022/01/20 11:48:54;;;;;;;16.08;3.28;;;;;;;-144.19;100.00;78512.66;6097597;23;20336;-87
2022/01/20 11:51:23;;;;;;;12.82;2.63;;;;;;;-144.19;100.00;78520.56;6103737;23;20023;-87
2022/01/20 11:54:02;;;;;;;8.95;2.47;;;;;;;-144.19;100.00;78508.72;6127504;23;20045;-88
2022/01/20 11:56:34;;;;;;;14.10;2.47;;;;;;;-144.19;100.00;78512.66;6128591;23;20100;-88
2022/01/20 11:59:02;;;;;;;7.25;2.33;;;;;;;-144.19;100.00;78550.09;6129959;23;20022;-88
2022/01/20 12:01:30;;;;;;;12.98;1.65;;;;;;;-144.19;100.00;78534.34;6157737;23;20026;-88
2022/01/20 12:03:58;;;;;;;11.35;1.85;;;;;;;-144.19;100.00;78489.03;6129386;23;20028;-87
2022/01/20 12:06:25;;;;;;;10.50;1.97;;;;;;;-144.19;100.00;78520.56;6128914;23;20069;-87
2022/01/20 12:08:58;;;;;;;8.55;1.58;;;;;;;-144.19;100.00;78520.56;6128936;23;20245;-85
2022/01/20 12:11:42;;;;;;;11.00;2.25;;;;;;;-144.19;100.00;78485.09;6154666;23;20052;-87
2022/01/20 12:14:09;;;;;;;12.30;2.88;;;;;;;-144.19;100.00;78473.28;6128189;23;20017;-87
2022/01/20 12:16:37;;;;;;;7.53;1.48;;;;;;;-144.19;100.00;78406.31;6126849;23;20055;-87
2022/01/20 12:19:05;;;;;;;9.68;2.30;;;;;;;-144.19;100.00;78410.25;6127215;23;20018;-87
2022/01/20 12:21:32;;;;;;;9.95;2.15;;;;;;;-144.19;100.00;78429.97;6128557;23;20036;-86
2022/01/20 12:23:59;;;;;;;13.13;2.20;;;;;;;-144.19;100.00;78459.50;6127881;23;20017;-86
2022/01/20 12:26:26;;;;;;;12.82;2.25;;;;;;;-144.19;100.00;78451.63;6153652;23;20260;-86
2022/01/20 12:29:04;;;;;;;12.95;1.80;;;;;;;-144.19;100.00;78459.50;6128801;23;20031;-86
2022/01/20 12:31:32;;;;;;;14.88;2.38;;;;;;;-144.19;100.00;78449.66;6153302;23;20474;-87
2022/01/20 12:33:59;;;;;;;11.23;3.13;;;;;;;-144.19;100.00;78428.00;6153736;23;20047;-85
2022/01/20 12:36:25;;;;;;;15.43;2.13;;;;;;;-144.19;100.00;78406.31;6153608;23;20056;-86